Op dit moment wordt er hard gewerkt aan deze versie van Weerstation-Wijk.nl
Het kan zijn dat er dingen nog niet helemaal kloppen of goed werken.

Weerstation-Wijk.nl. Voor het weer van Wijk bij Duurstede en omstreken



Webcam Weerstation-Wijk Meer informatie Webcam Weerstation-Wijk


Bezoek ook deze websites:

Template documentation
and downloads

And another site



METAR rapporten vliegvelden

   
EHVK - Volkel Rnlafb, Netherlands
Afstand tot: ZW 18 km
Gewijzigd: Apr 21 2021 12:25 am
Helder  
Helder  
   Wind: ONO 3.7 km/h
Wind: ONO 3.7 km/h
Temperatuur: 9°C
Dauwpunt: 5°C
Vochtigheid: 76%
Barometer: 1016 hPa
Bewolking: Helder
Zicht: meer dan 10 km
Bewolking: Helder
EHVK 202225Z AUTO 07002KT 9999 NCD 09/05 Q1016 BLU
EDLV - Niederrhein, Germany
Afstand tot: ZO 25 km
Gewijzigd: Apr 18 2021 11:50 pm
Verouderd
Helder  
Helder  
   Wind: varieert 5.6 km/h
Wind: varieert 5.6 km/h
Temperatuur: 10°C
Voelt als: 9°C
Dauwpunt: 4°C
Vochtigheid: 67%
Barometer: 1021 hPa
Zicht: meer dan 10 km
Bewolking: Helder
EDLV 182150Z VRB03KT CAVOK 10/04 Q1021
EHDL - Deelen Rnlafb, Netherlands
Afstand tot: N 35 km
Gewijzigd: Apr 21 2021 12:25 am
Helder  
Helder  
   Wind: Noorden 3.7 km/h
Wind: Noorden 3.7 km/h
Temperatuur: 6°C
Dauwpunt: 4°C
Vochtigheid: 87%
Barometer: 1016 hPa
Bewolking: Helder
Zicht: meer dan 10 km
Bewolking: Helder
EHDL 202225Z AUTO 36002KT 9999 NCD 06/04 Q1016 BLU
EHEH - Eindhoven Rnlafb, Netherlands
Afstand tot: ZW 48 km
Gewijzigd: Apr 21 2021 12:25 am
Helder  
Helder  
   Wind: varieert 3.7 km/h
Wind: varieert 3.7 km/h
Temperatuur: 7°C
Dauwpunt: 5°C
Vochtigheid: 87%
Barometer: 1016 hPa
Bewolking: Helder
Zicht: meer dan 10 km
Bewolking: Helder
EHEH 202225Z AUTO VRB02KT 9999 NCD 07/05 Q1016 BLU
EHGR - Gilze-Rijen Rnla, Netherlands
Afstand tot: WZW 70 km
Gewijzigd: Apr 21 2021 12:25 am
Nevel, Helder  
Nevel, Helder  
   Wind: NNO 3.7 km/h
Wind: NNO 3.7 km/h
Temperatuur: 8°C
Dauwpunt: 6°C
Vochtigheid: 87%
Barometer: 1017 hPa
Bewolking: Helder
Zicht: 8 km
Bewolking: Helder
EHGR 202225Z AUTO 02002KT 8000 BR NCD 08/06 Q1017 BLU
EBBL - Kleine-Brogel(Ba, Belgium
Afstand tot: ZZW 71 km
Gewijzigd: Apr 21 2021 12:25 am
Helder  
Helder  
   Wind: varieert 3.7 km/h
Wind: varieert 3.7 km/h
Temperatuur: 7°C
Dauwpunt: 4°C
Vochtigheid: 81%
Barometer: 1016 hPa
Bewolking: Helder
Zicht: meer dan 10 km
Bewolking: Helder
EBBL 202225Z AUTO VRB02KT 9999 NCD 07/04 Q1016 BLU

Script ontwikkeld door  Saratoga-weather.org Aangepast voor de template door  Weerstation Leuven

U vindt ons ook hier:

UK Metoffice

WeatherCloud

AWEKAS

Apparatuur in gebruik:

Weerstation
Davis VP2

Weerprogramma
Weather Display

Webleverancier
WebReus.nl

Davis VP2

Weather Display

WebReus.nl


Weerstation-Wijk.nl. Voor het weer van Wijk bij Duurstede en omstreken